Joes, Colorado
Current Conditions -  °F | °C
As of 1:53 AM on Saturday 20 Dec 2014 (Local Time) from KITR Reporting Station
Clear Clear  
Wind Chill: 23°   Ceiling: Unl
Heat Index: 31°   Visibility: 10mi
Dew Point: 26°   Wind: 9mph
Humidity: 82%   Direction: 240°WSW
Pressure: 30.03"   Gusts: NA
Location:  39.66°N, 102.68°W
Report Text: KITR 200853Z AUTO 24008KT 10SM CLR M01/M03 A3003 RMK AO2 SLP172 T10061033 55006
Loading
Personal Weather Stations






























Interactive Weather Map New forecast layout! Learn more

10-Day Weather Forecast

Advertisements
Track Severe Weather on mobile